createdAt,value
2019-03-04T00:01:53.298Z,96775.41
2019-03-04T00:04:23.509Z,96770.88
2019-03-04T00:06:53.791Z,96770.85
2019-03-04T00:09:24.114Z,96760.48
2019-03-04T00:11:54.543Z,96755.20
2019-03-04T00:14:24.806Z,96746.41
2019-03-04T00:16:55.242Z,96738.36
2019-03-04T00:19:25.546Z,96724.27
2019-03-04T00:21:55.764Z,96721.59
2019-03-04T00:24:25.920Z,96725.14
2019-03-04T00:26:56.122Z,96710.52
2019-03-04T00:29:26.355Z,96716.94
2019-03-04T00:31:56.532Z,96711.68
2019-03-04T00:34:26.760Z,96714.91
2019-03-04T00:36:57.046Z,96712.19
2019-03-04T00:39:27.325Z,96720.66
2019-03-04T00:41:57.602Z,96714.03
2019-03-04T00:44:27.745Z,96704.70
2019-03-04T00:46:58.945Z,96704.25
2019-03-04T00:49:29.152Z,96703.69
2019-03-04T00:51:59.401Z,96693.83
2019-03-04T00:54:29.561Z,96689.81
2019-03-04T00:56:59.791Z,96684.22
2019-03-04T00:59:31.415Z,96675.41
2019-03-04T01:02:01.810Z,96668.48
2019-03-04T01:04:32.206Z,96667.59
2019-03-04T01:07:02.654Z,96655.95
2019-03-04T01:09:32.929Z,96651.45
2019-03-04T01:12:03.149Z,96638.40
2019-03-04T01:14:33.409Z,96633.90
2019-03-04T01:17:03.813Z,96629.96
2019-03-04T01:19:34.234Z,96627.14
2019-03-04T01:22:04.561Z,96619.28
2019-03-04T01:24:34.688Z,96611.02
2019-03-04T01:27:05.106Z,96615.79
2019-03-04T01:29:35.501Z,96609.30
2019-03-04T01:32:05.779Z,96598.77
2019-03-04T01:34:35.938Z,96596.34
2019-03-04T01:37:06.249Z,96589.48
2019-03-04T01:39:36.502Z,96586.05
2019-03-04T01:42:06.870Z,96581.19
2019-03-04T01:44:37.220Z,96572.73
2019-03-04T01:47:07.475Z,96571.50
2019-03-04T01:49:37.648Z,96552.06
2019-03-04T01:52:07.928Z,96552.75
2019-03-04T01:54:38.359Z,96544.98
2019-03-04T01:57:08.520Z,96546.31
2019-03-04T01:59:38.822Z,96543.64
2019-03-04T02:02:09.204Z,96536.19
2019-03-04T02:04:39.350Z,96536.41
2019-03-04T02:07:09.761Z,96542.81
2019-03-04T02:09:40.043Z,96547.69
2019-03-04T02:12:10.644Z,96561.46
2019-03-04T02:14:40.926Z,96560.36
2019-03-04T02:17:11.251Z,96548.10
2019-03-04T02:19:41.540Z,96556.94
2019-03-04T02:22:11.784Z,96550.31
2019-03-04T02:24:42.046Z,96549.52
2019-03-04T02:27:12.485Z,96538.63
2019-03-04T02:29:42.838Z,96544.06
2019-03-04T02:32:13.136Z,96537.90
2019-03-04T02:34:43.485Z,96525.11
2019-03-04T02:37:13.861Z,96521.00
2019-03-04T02:39:44.145Z,96513.45
2019-03-04T02:42:14.476Z,96512.20
2019-03-04T02:44:44.766Z,96500.56
2019-03-04T02:47:15.140Z,96493.14
2019-03-04T02:49:45.482Z,96495.58
2019-03-04T02:52:15.698Z,96478.84
2019-03-04T02:54:45.960Z,96462.78
2019-03-04T02:57:16.079Z,96470.85
2019-03-04T02:59:46.334Z,96465.34
2019-03-04T03:02:16.812Z,96464.31
2019-03-04T03:04:47.243Z,96462.22
2019-03-04T03:07:17.767Z,96450.58
2019-03-04T03:09:48.163Z,96440.27
2019-03-04T03:12:18.471Z,96415.51
2019-03-04T03:14:48.693Z,96405.28
2019-03-04T03:17:18.927Z,96412.89
2019-03-04T03:19:49.117Z,96421.41
2019-03-04T03:22:19.552Z,96421.86
2019-03-04T03:24:50.015Z,96414.81
2019-03-04T03:27:20.302Z,96399.01
2019-03-04T03:29:52.130Z,96391.14
2019-03-04T03:32:22.649Z,96400.87
2019-03-04T03:34:52.772Z,96383.07
2019-03-04T03:37:23.068Z,96383.45
2019-03-04T03:39:53.339Z,96381.78
2019-03-04T03:42:23.735Z,96394.58
2019-03-04T03:44:53.968Z,96401.53
2019-03-04T03:47:24.142Z,96399.70
2019-03-04T03:49:54.504Z,96395.24
2019-03-04T03:52:24.783Z,96386.56
2019-03-04T03:54:55.168Z,96373.53
2019-03-04T03:57:25.576Z,96365.88
2019-03-04T03:59:55.916Z,96355.84
2019-03-04T04:02:26.251Z,96342.81
2019-03-04T04:04:56.600Z,96345.47
2019-03-04T04:07:26.752Z,96337.98
2019-03-04T04:09:57.040Z,96337.69
2019-03-04T04:12:27.382Z,96329.44
2019-03-04T04:15:06.414Z,96321.26
2019-03-04T04:17:36.811Z,96308.98
2019-03-04T04:20:07.904Z,96293.91
2019-03-04T04:22:38.554Z,96306.14
2019-03-04T04:25:09.420Z,96298.38
2019-03-04T04:27:39.928Z,96286.09
2019-03-04T04:30:11.390Z,96288.16
2019-03-04T04:32:41.851Z,96281.43
2019-03-04T04:35:12.154Z,96280.63
2019-03-04T04:37:42.724Z,96276.06
2019-03-04T04:40:13.186Z,96269.73
2019-03-04T04:42:43.591Z,96254.94
2019-03-04T04:45:14.838Z,96239.80
2019-03-04T04:47:45.249Z,96235.28
2019-03-04T04:50:15.801Z,96228.30
2019-03-04T04:52:45.996Z,96205.26
2019-03-04T04:55:16.298Z,96202.53
2019-03-04T04:57:46.810Z,96203.82
2019-03-04T05:00:17.918Z,96193.97
2019-03-04T05:02:48.222Z,96179.27
2019-03-04T05:05:19.736Z,96156.44
2019-03-04T05:07:50.009Z,96153.73
2019-03-04T05:10:20.539Z,96146.32
2019-03-04T05:12:50.916Z,96142.60
2019-03-04T05:15:21.393Z,96128.78
2019-03-04T05:17:51.753Z,96126.03
2019-03-04T05:20:23.319Z,96114.66
2019-03-04T05:22:53.958Z,96120.50
2019-03-04T05:25:24.222Z,96128.65
2019-03-04T05:27:54.542Z,96127.53
2019-03-04T05:30:25.476Z,96131.89
2019-03-04T05:32:55.634Z,96108.69
2019-03-04T05:35:25.818Z,96112.47
2019-03-04T05:37:56.308Z,96104.27
2019-03-04T05:40:26.612Z,96103.49
2019-03-04T05:42:56.870Z,96110.41
2019-03-04T05:45:27.117Z,96132.27
2019-03-04T05:47:57.434Z,96147.91
2019-03-04T05:50:27.911Z,96141.04
2019-03-04T05:52:58.122Z,96145.78
2019-03-04T05:55:28.361Z,96138.06
2019-03-04T05:57:58.556Z,96114.02
2019-03-04T06:00:31.069Z,96100.19
2019-03-04T06:03:01.617Z,96079.58
2019-03-04T06:05:32.000Z,96047.20
2019-03-04T06:08:03.774Z,96044.80
2019-03-04T06:10:34.021Z,96046.92
2019-03-04T06:13:04.520Z,96050.23
2019-03-04T06:15:34.943Z,96065.69
2019-03-04T06:18:05.348Z,96063.93
2019-03-04T06:20:35.694Z,96077.58
2019-03-04T06:23:06.004Z,96078.10
2019-03-04T06:25:36.336Z,96081.89
2019-03-04T06:28:06.647Z,96078.56
2019-03-04T06:30:36.877Z,96083.23
2019-03-04T06:33:07.093Z,96088.68
2019-03-04T06:35:37.357Z,96092.23
2019-03-04T06:38:07.588Z,96088.55
2019-03-04T06:40:37.784Z,96097.41
2019-03-04T06:43:08.064Z,96092.44
2019-03-04T06:45:38.226Z,96086.48
2019-03-04T06:48:08.442Z,96089.03
2019-03-04T06:50:54.491Z,96084.27
2019-03-04T06:54:20.670Z,96085.60
2019-03-04T06:57:33.970Z,96104.20
2019-03-04T07:00:51.568Z,96109.16
2019-03-04T07:03:32.146Z,96109.27
2019-03-04T07:06:02.456Z,96117.23
2019-03-04T07:09:04.706Z,96103.89
2019-03-04T07:11:35.322Z,96107.06
2019-03-04T07:14:06.553Z,96129.67
2019-03-04T07:16:36.827Z,96124.43
2019-03-04T07:19:10.475Z,96144.94
2019-03-04T07:21:40.982Z,96141.28
2019-03-04T07:24:11.238Z,96137.48
2019-03-04T07:26:42.116Z,96143.89
2019-03-04T07:29:12.365Z,96149.53
2019-03-04T07:31:42.664Z,96161.28
2019-03-04T07:34:12.977Z,96173.77
2019-03-04T07:36:43.239Z,96168.20
2019-03-04T07:39:20.666Z,96154.38
2019-03-04T07:41:56.343Z,96157.21
2019-03-04T07:44:26.757Z,96159.91
2019-03-04T07:46:57.107Z,96159.00
2019-03-04T07:49:29.482Z,96158.16
2019-03-04T07:51:59.858Z,96162.48
2019-03-04T07:54:30.097Z,96183.55
2019-03-04T07:57:00.474Z,96188.55
2019-03-04T07:59:30.666Z,96197.77
2019-03-04T08:02:00.834Z,96207.13
2019-03-04T08:04:31.202Z,96216.98
2019-03-04T08:07:45.564Z,96230.75
2019-03-04T08:11:12.216Z,96254.42
2019-03-04T08:13:54.677Z,96276.17
2019-03-04T08:16:25.051Z,96300.34
2019-03-04T08:18:55.273Z,96322.91
2019-03-04T08:21:25.692Z,96349.53
2019-03-04T08:23:56.025Z,96362.54
2019-03-04T08:26:26.404Z,96379.92
2019-03-04T08:28:58.702Z,96361.14
2019-03-04T08:31:28.761Z,96364.94
2019-03-04T08:33:59.065Z,96367.67
2019-03-04T08:36:29.299Z,96385.43
2019-03-04T08:38:59.531Z,96421.78
2019-03-04T08:41:29.843Z,96444.84
2019-03-04T08:44:00.065Z,96414.42
2019-03-04T08:46:30.461Z,96423.29
2019-03-04T08:49:00.671Z,96417.48
2019-03-04T08:51:30.819Z,96384.48
2019-03-04T08:54:01.040Z,96399.28
2019-03-04T08:56:33.038Z,96387.32
2019-03-04T08:59:03.182Z,96354.66
2019-03-04T09:01:33.476Z,96366.04
2019-03-04T09:04:03.830Z,96356.13
2019-03-04T09:06:34.072Z,96363.45
2019-03-04T09:09:06.162Z,96325.33
2019-03-04T09:11:36.577Z,96356.11
2019-03-04T09:14:07.086Z,96335.94
2019-03-04T09:16:37.252Z,96379.53
2019-03-04T09:19:07.693Z,96378.06
2019-03-04T09:21:38.021Z,96333.08
2019-03-04T09:24:08.304Z,96343.54
2019-03-04T09:26:38.712Z,96311.08
2019-03-04T09:29:08.915Z,96305.69
2019-03-04T09:31:39.257Z,96311.39
2019-03-04T09:34:09.534Z,96273.87
2019-03-04T09:36:39.728Z,96294.25
2019-03-04T09:39:15.563Z,96263.12
2019-03-04T09:41:45.901Z,96275.84
2019-03-04T09:44:16.173Z,96255.00
2019-03-04T09:46:46.427Z,96250.14
2019-03-04T09:49:16.631Z,96219.47
2019-03-04T09:51:46.772Z,96247.05
2019-03-04T09:54:16.901Z,96289.13
2019-03-04T09:56:47.074Z,96254.52
2019-03-04T09:59:17.440Z,96237.67
2019-03-04T10:01:53.565Z,96275.45
2019-03-04T10:05:42.004Z,96286.84
2019-03-04T10:08:33.194Z,96293.41
2019-03-04T10:11:49.749Z,96311.34
2019-03-04T10:15:20.604Z,96322.11
2019-03-04T10:18:39.067Z,96290.58
2019-03-04T10:21:39.457Z,96272.23
2019-03-04T10:24:46.889Z,96329.83
2019-03-04T10:28:38.749Z,96248.82
2019-03-04T10:32:00.481Z,96305.74
2019-03-04T10:35:23.821Z,96296.85
2019-03-04T10:38:43.430Z,96296.73
2019-03-04T10:41:39.971Z,96284.59
2019-03-04T10:45:00.720Z,96303.17
2019-03-04T10:47:30.877Z,96314.05
2019-03-04T10:50:01.073Z,96337.19
2019-03-04T10:52:31.210Z,96319.88
2019-03-04T10:55:01.355Z,96319.50
2019-03-04T10:57:31.636Z,96329.52
2019-03-04T11:00:01.730Z,96321.98
2019-03-04T11:02:31.953Z,96300.67
2019-03-04T11:05:02.200Z,96292.23
2019-03-04T11:07:32.481Z,96279.38
2019-03-04T11:10:02.747Z,96282.88
2019-03-04T11:12:33.032Z,96251.66
2019-03-04T11:15:03.416Z,96258.72
2019-03-04T11:17:33.779Z,96278.17
2019-03-04T11:20:04.098Z,96294.09
2019-03-04T11:22:34.406Z,96299.22
2019-03-04T11:25:05.065Z,96315.72
2019-03-04T11:27:35.326Z,96318.88
2019-03-04T11:30:06.482Z,96318.68
2019-03-04T11:32:36.795Z,96324.56
2019-03-04T11:35:07.679Z,96314.77
2019-03-04T11:37:38.049Z,96307.84
2019-03-04T11:40:25.990Z,96303.33
2019-03-04T11:42:56.304Z,96306.14
2019-03-04T11:45:26.605Z,96293.87
2019-03-04T11:47:58.057Z,96277.87
2019-03-04T11:50:28.426Z,96278.66
2019-03-04T11:52:58.637Z,96283.50
2019-03-04T11:55:29.755Z,96280.22
2019-03-04T11:58:00.026Z,96279.47
2019-03-04T12:00:39.200Z,96272.25
2019-03-04T12:03:10.575Z,96274.33
2019-03-04T12:05:40.935Z,96274.91
2019-03-04T12:08:11.220Z,96265.29
2019-03-04T12:10:41.472Z,96274.69
2019-03-04T12:13:11.883Z,96246.07
2019-03-04T12:15:42.302Z,96226.41
2019-03-04T12:18:12.692Z,96241.28
2019-03-04T12:20:43.034Z,96236.42
2019-03-04T12:23:13.330Z,96235.70
2019-03-04T12:25:43.874Z,96234.72
2019-03-04T12:28:14.417Z,96232.41
2019-03-04T12:30:44.813Z,96251.23
2019-03-04T12:33:15.115Z,96234.19
2019-03-04T12:35:45.558Z,96218.95
2019-03-04T12:38:15.887Z,96231.67
2019-03-04T12:40:46.341Z,96231.14
2019-03-04T12:43:16.496Z,96223.56
2019-03-04T12:45:46.813Z,96217.66
2019-03-04T12:48:17.266Z,96214.30
2019-03-04T12:50:47.571Z,96213.37
2019-03-04T12:53:17.872Z,96217.53
2019-03-04T12:55:48.249Z,96217.27
2019-03-04T12:58:18.596Z,96201.12
2019-03-04T13:00:49.014Z,96195.83
2019-03-04T13:03:24.256Z,96190.45
2019-03-04T13:05:54.643Z,96199.70
2019-03-04T13:08:24.975Z,96195.55
2019-03-04T13:10:55.233Z,96203.59
2019-03-04T13:13:25.581Z,96185.31
2019-03-04T13:15:57.051Z,96198.00
2019-03-04T13:18:27.296Z,96205.89
2019-03-04T13:20:57.584Z,96183.26
2019-03-04T13:23:28.003Z,96177.73
2019-03-04T13:25:58.366Z,96180.98
2019-03-04T13:28:28.668Z,96159.63
2019-03-04T13:30:59.061Z,96160.40
2019-03-04T13:33:29.505Z,96140.72
2019-03-04T13:36:00.367Z,96138.41
2019-03-04T13:38:30.646Z,96139.58
2019-03-04T13:41:01.041Z,96158.11
2019-03-04T13:43:31.196Z,96160.83
2019-03-04T13:46:01.647Z,96149.67
2019-03-04T13:48:31.953Z,96156.09
2019-03-04T13:51:02.336Z,96153.55
2019-03-04T13:53:32.719Z,96165.22
2019-03-04T13:56:03.008Z,96171.88
2019-03-04T13:58:33.383Z,96195.17
2019-03-04T14:01:03.777Z,96179.10
2019-03-04T14:03:33.989Z,96167.80
2019-03-04T14:06:04.415Z,96166.52
2019-03-04T14:08:34.781Z,96163.56
2019-03-04T14:11:07.898Z,96163.95
2019-03-04T14:13:38.280Z,96160.23
2019-03-04T14:16:09.645Z,96158.60
2019-03-04T14:18:39.880Z,96160.04
2019-03-04T14:21:10.362Z,96159.45
2019-03-04T14:23:40.765Z,96149.64
2019-03-04T14:26:11.154Z,96140.41
2019-03-04T14:28:41.393Z,96141.77
2019-03-04T14:31:11.724Z,96153.08
2019-03-04T14:33:41.927Z,96143.97
2019-03-04T14:36:12.197Z,96157.30
2019-03-04T14:38:43.924Z,96167.03
2019-03-04T14:41:14.291Z,96199.59
2019-03-04T14:43:44.461Z,96149.89
2019-03-04T14:46:27.701Z,96158.43
2019-03-04T14:48:58.052Z,96165.25
2019-03-04T14:51:28.434Z,96164.58
2019-03-04T14:53:58.654Z,96128.73
2019-03-04T14:56:28.875Z,96145.30
2019-03-04T14:59:10.281Z,96135.44
2019-03-04T15:01:31.265Z,96142.53
2019-03-04T15:04:01.590Z,96136.01
2019-03-04T15:06:32.026Z,96184.52
2019-03-04T15:09:02.552Z,96173.23
2019-03-04T15:11:33.196Z,96154.80
2019-03-04T15:14:03.428Z,96148.35
2019-03-04T15:16:33.693Z,96190.18
2019-03-04T15:19:04.143Z,96178.12
2019-03-04T15:21:34.539Z,96188.53
2019-03-04T15:24:05.035Z,96236.41
2019-03-04T15:26:41.977Z,96245.93
2019-03-04T15:29:07.543Z,96261.05
2019-03-04T15:31:37.897Z,96256.64
2019-03-04T15:34:08.268Z,96268.00
2019-03-04T15:36:38.691Z,96281.66
2019-03-04T15:39:22.603Z,96304.01
2019-03-04T15:41:47.756Z,96337.88
2019-03-04T15:44:18.059Z,96361.81
2019-03-04T15:46:48.512Z,96378.88
2019-03-04T15:49:18.732Z,96428.56
2019-03-04T15:51:49.099Z,96442.65
2019-03-04T15:54:19.473Z,96423.59
2019-03-04T15:56:49.862Z,96447.35
2019-03-04T15:59:20.259Z,96462.23
2019-03-04T16:01:50.638Z,96434.89
2019-03-04T16:04:21.101Z,96413.86
2019-03-04T16:06:51.364Z,96409.81
2019-03-04T16:09:23.627Z,96406.19
2019-03-04T16:11:53.853Z,96410.95
2019-03-04T16:14:24.203Z,96414.08
2019-03-04T16:16:54.486Z,96421.44
2019-03-04T16:19:24.874Z,96415.87
2019-03-04T16:21:55.188Z,96409.67
2019-03-04T16:24:25.611Z,96410.70
2019-03-04T16:26:55.825Z,96410.31
2019-03-04T16:29:26.040Z,96407.95
2019-03-04T16:31:56.275Z,96399.23
2019-03-04T16:34:26.593Z,96382.22
2019-03-04T16:36:56.841Z,96385.72
2019-03-04T16:39:27.593Z,96400.48
2019-03-04T16:41:57.692Z,96399.62
2019-03-04T16:44:27.956Z,96413.64
2019-03-04T16:46:58.216Z,96433.11
2019-03-04T16:49:28.371Z,96449.97
2019-03-04T16:51:58.650Z,96468.25
2019-03-04T16:54:29.074Z,96474.86
2019-03-04T16:56:59.294Z,96476.99
2019-03-04T16:59:29.461Z,96476.83
2019-03-04T17:01:59.668Z,96483.48
2019-03-04T17:04:29.978Z,96510.64
2019-03-04T17:07:00.257Z,96506.47
2019-03-04T17:09:30.652Z,96518.59
2019-03-04T17:12:01.010Z,96532.28
2019-03-04T17:14:31.345Z,96540.46
2019-03-04T17:17:01.712Z,96549.38
2019-03-04T17:19:32.019Z,96557.54
2019-03-04T17:22:02.364Z,96578.29
2019-03-04T17:24:32.902Z,96583.07
2019-03-04T17:27:03.292Z,96585.48
2019-03-04T17:29:33.454Z,96593.73
2019-03-04T17:32:05.244Z,96597.60
2019-03-04T17:34:35.631Z,96593.41
2019-03-04T17:37:06.128Z,96594.98
2019-03-04T17:39:36.421Z,96597.08
2019-03-04T17:42:07.052Z,96608.87
2019-03-04T17:44:37.433Z,96619.36
2019-03-04T17:47:07.766Z,96623.02
2019-03-04T17:49:38.271Z,96633.19
2019-03-04T17:52:08.764Z,96651.41
2019-03-04T17:54:39.080Z,96647.16
2019-03-04T17:57:09.578Z,96655.03
2019-03-04T17:59:39.877Z,96659.56
2019-03-04T18:02:10.221Z,96664.04
2019-03-04T18:04:40.381Z,96671.94
2019-03-04T18:07:10.879Z,96676.41
2019-03-04T18:09:41.126Z,96676.41
2019-03-04T18:12:11.361Z,96687.23
2019-03-04T18:14:41.610Z,96696.16
2019-03-04T18:17:12.013Z,96692.37
2019-03-04T18:19:42.250Z,96701.81
2019-03-04T18:22:12.461Z,96714.09
2019-03-04T18:24:42.591Z,96713.36
2019-03-04T18:27:27.763Z,96726.42
2019-03-04T18:31:03.676Z,96724.91
2019-03-04T18:34:31.685Z,96728.30
2019-03-04T18:37:25.849Z,96749.37
2019-03-04T18:40:46.954Z,96759.66
2019-03-04T18:43:55.028Z,96767.26
2019-03-04T18:46:40.454Z,96767.09
2019-03-04T18:49:11.834Z,96778.45
2019-03-04T18:51:42.139Z,96769.77
2019-03-04T18:54:20.269Z,96768.95
2019-03-04T18:56:50.679Z,96773.30
2019-03-04T18:59:21.482Z,96778.77
2019-03-04T19:01:52.016Z,96780.76
2019-03-04T19:04:22.403Z,96785.30
2019-03-04T19:06:52.755Z,96771.37
2019-03-04T19:09:23.187Z,96769.90
2019-03-04T19:11:53.536Z,96782.34
2019-03-04T19:14:23.779Z,96777.39
2019-03-04T19:16:54.126Z,96778.69
2019-03-04T19:19:24.487Z,96782.61
2019-03-04T19:21:54.945Z,96786.77
2019-03-04T19:24:25.301Z,96785.95
2019-03-04T19:26:55.597Z,96784.73
2019-03-04T19:29:25.951Z,96777.98
2019-03-04T19:31:56.643Z,96788.47
2019-03-04T19:34:27.006Z,96790.44
2019-03-04T19:36:57.460Z,96793.61
2019-03-04T19:39:27.987Z,96805.74
2019-03-04T19:41:58.518Z,96808.41
2019-03-04T19:44:29.974Z,96814.77
2019-03-04T19:47:00.404Z,96809.55
2019-03-04T19:49:30.785Z,96818.19
2019-03-04T19:52:01.244Z,96824.01
2019-03-04T19:54:31.729Z,96832.38
2019-03-04T19:57:02.329Z,96824.17
2019-03-04T19:59:32.781Z,96839.84
2019-03-04T20:02:03.343Z,96839.63
2019-03-04T20:04:33.829Z,96847.08
2019-03-04T20:07:04.707Z,96851.80
2019-03-04T20:09:35.047Z,96854.80
2019-03-04T20:12:05.723Z,96849.38
2019-03-04T20:14:36.153Z,96856.33
2019-03-04T20:17:06.659Z,96869.69
2019-03-04T20:19:37.042Z,96869.34
2019-03-04T20:22:07.906Z,96877.30
2019-03-04T20:24:38.346Z,96872.62
2019-03-04T20:27:08.782Z,96871.48
2019-03-04T20:29:39.297Z,96874.30
2019-03-04T20:32:09.782Z,96871.20
2019-03-04T20:34:40.184Z,96870.34
2019-03-04T20:37:10.939Z,96863.90
2019-03-04T20:39:41.399Z,96869.71
2019-03-04T20:42:11.922Z,96872.27
2019-03-04T20:44:42.204Z,96869.13
2019-03-04T20:47:12.645Z,96869.08
2019-03-04T20:49:43.025Z,96873.53
2019-03-04T20:52:13.342Z,96872.39
2019-03-04T20:54:43.756Z,96879.56
2019-03-04T20:57:14.091Z,96877.31
2019-03-04T20:59:44.429Z,96886.28
2019-03-04T21:03:41.048Z,96896.36
2019-03-04T21:06:11.870Z,96900.31
2019-03-04T21:08:42.266Z,96905.18
2019-03-04T21:11:12.892Z,96904.59
2019-03-04T21:13:43.362Z,96911.47
2019-03-04T21:16:13.703Z,96914.23
2019-03-04T21:18:44.096Z,96918.35
2019-03-04T21:21:14.511Z,96920.23
2019-03-04T21:23:49.812Z,96919.97
2019-03-04T21:26:31.276Z,96918.48
2019-03-04T21:30:18.605Z,96921.17
2019-03-04T21:33:22.533Z,96919.55
2019-03-04T21:36:33.511Z,96926.91
2019-03-04T21:39:05.121Z,96935.49
2019-03-04T21:41:47.857Z,96942.53
2019-03-04T21:45:33.237Z,96942.03
2019-03-04T21:48:33.359Z,96948.50
2019-03-04T21:52:19.879Z,96956.24
2019-03-04T21:54:42.102Z,96964.79
2019-03-04T21:57:39.694Z,96980.30
2019-03-04T22:00:17.244Z,96982.27
2019-03-04T22:03:08.179Z,96977.67
2019-03-04T22:05:49.503Z,96976.22
2019-03-04T22:08:11.429Z,96977.67
2019-03-04T22:10:41.866Z,96976.81
2019-03-04T22:13:12.279Z,96972.48
2019-03-04T22:15:42.680Z,96974.19
2019-03-04T22:18:13.231Z,96972.56
2019-03-04T22:20:43.736Z,96972.72
2019-03-04T22:23:14.183Z,96961.78
2019-03-04T22:25:46.117Z,96964.36
2019-03-04T22:28:16.501Z,96960.87
2019-03-04T22:30:46.872Z,96972.72
2019-03-04T22:33:17.713Z,96965.11
2019-03-04T22:35:48.205Z,96964.82
2019-03-04T22:38:18.672Z,96968.77
2019-03-04T22:40:49.137Z,96966.91
2019-03-04T22:43:19.608Z,96967.13
2019-03-04T22:45:49.983Z,96978.52
2019-03-04T22:48:20.330Z,96979.62
2019-03-04T22:50:50.790Z,96982.85
2019-03-04T22:53:21.204Z,96993.42
2019-03-04T22:55:51.591Z,96986.92
2019-03-04T22:58:28.599Z,96986.03
2019-03-04T23:01:33.785Z,96979.81
2019-03-04T23:04:21.091Z,96986.99
2019-03-04T23:07:20.321Z,96977.07
2019-03-04T23:10:40.395Z,96981.43
2019-03-04T23:14:11.571Z,96997.03
2019-03-04T23:16:41.910Z,96998.07
2019-03-04T23:19:12.296Z,97004.20
2019-03-04T23:21:42.772Z,97013.64
2019-03-04T23:24:22.000Z,97013.37
2019-03-04T23:26:52.219Z,97014.48
2019-03-04T23:29:22.458Z,97021.14
2019-03-04T23:31:53.085Z,97024.29
2019-03-04T23:34:23.348Z,97032.12
2019-03-04T23:36:53.686Z,97025.69
2019-03-04T23:39:24.116Z,97030.05
2019-03-04T23:41:54.420Z,97017.11
2019-03-04T23:44:24.821Z,97016.44
2019-03-04T23:46:55.123Z,97016.44
2019-03-04T23:49:26.492Z,97014.31
2019-03-04T23:51:56.724Z,97015.84
2019-03-04T23:54:26.869Z,97006.44
2019-03-04T23:56:57.079Z,97008.59
2019-03-04T23:59:27.488Z,97002.27
